createdAt,value
2022-08-12T00:00:10.441Z,18.10
2022-08-12T00:02:56.220Z,18.00
2022-08-12T00:05:58.273Z,18.00
2022-08-12T00:08:48.983Z,17.90
2022-08-12T00:11:34.850Z,17.90
2022-08-12T00:14:22.120Z,17.90
2022-08-12T00:17:09.399Z,18.00
2022-08-12T00:19:54.854Z,17.90
2022-08-12T00:22:41.063Z,17.80
2022-08-12T00:26:01.392Z,17.80
2022-08-12T00:28:33.899Z,17.80
2022-08-12T00:31:21.120Z,17.80
2022-08-12T00:34:06.659Z,17.70
2022-08-12T00:36:52.299Z,17.70
2022-08-12T00:39:38.789Z,17.70
2022-08-12T00:42:12.401Z,17.70
2022-08-12T00:44:42.384Z,17.60
2022-08-12T00:47:24.431Z,17.60
2022-08-12T00:49:55.620Z,17.70
2022-08-12T00:52:24.942Z,17.70
2022-08-12T00:54:56.801Z,17.60
2022-08-12T00:57:28.855Z,17.60
2022-08-12T00:59:58.521Z,17.50
2022-08-12T01:02:29.538Z,17.50
2022-08-12T01:05:17.593Z,17.40
2022-08-12T01:08:04.778Z,17.40
2022-08-12T01:10:54.133Z,17.40
2022-08-12T01:13:23.227Z,17.40
2022-08-12T01:15:54.850Z,17.40
2022-08-12T01:18:26.501Z,17.40
2022-08-12T01:21:04.344Z,17.30
2022-08-12T01:23:52.454Z,17.30
2022-08-12T01:26:24.362Z,17.30
2022-08-12T01:28:57.073Z,17.30
2022-08-12T01:31:27.695Z,17.30
2022-08-12T01:34:03.672Z,17.30
2022-08-12T01:36:38.502Z,17.30
2022-08-12T01:39:06.640Z,17.30
2022-08-12T01:41:42.586Z,17.30
2022-08-12T01:44:20.680Z,17.30
2022-08-12T01:47:04.527Z,17.30
2022-08-12T01:49:55.167Z,17.30
2022-08-12T01:52:34.718Z,17.30
2022-08-12T01:55:05.286Z,17.30
2022-08-12T01:57:57.177Z,17.30
2022-08-12T02:00:44.982Z,17.30
2022-08-12T02:04:07.681Z,17.20
2022-08-12T02:10:00.188Z,17.20
2022-08-12T02:12:43.568Z,17.30
2022-08-12T02:15:23.565Z,17.30
2022-08-12T02:18:04.787Z,17.30
2022-08-12T02:20:51.981Z,17.20
2022-08-12T02:23:25.484Z,17.20
2022-08-12T02:25:59.638Z,17.20
2022-08-12T02:28:28.826Z,17.20
2022-08-12T02:31:03.071Z,17.20
2022-08-12T02:33:32.096Z,17.10
2022-08-12T02:36:01.422Z,17.10
2022-08-12T02:38:31.245Z,17.10
2022-08-12T02:41:04.272Z,17.10
2022-08-12T02:43:37.899Z,17.10
2022-08-12T02:46:13.737Z,17.10
2022-08-12T02:48:51.112Z,17.10
2022-08-12T02:51:24.207Z,17.10
2022-08-12T02:54:04.785Z,17.10
2022-08-12T02:56:40.482Z,17.10
2022-08-12T02:59:10.662Z,17.10
2022-08-12T03:01:47.898Z,17.10
2022-08-12T03:04:24.467Z,17.00
2022-08-12T03:07:02.264Z,17.00
2022-08-12T03:09:47.325Z,17.10
2022-08-12T03:12:31.474Z,17.00
2022-08-12T03:15:06.949Z,17.00
2022-08-12T03:17:39.314Z,17.00
2022-08-12T03:20:10.387Z,17.00
2022-08-12T03:22:40.772Z,17.00
2022-08-12T03:25:17.233Z,16.90
2022-08-12T03:27:51.671Z,16.90
2022-08-12T03:30:20.826Z,16.90
2022-08-12T03:32:51.825Z,16.90
2022-08-12T03:35:40.287Z,16.80
2022-08-12T03:38:16.147Z,16.80
2022-08-12T03:41:15.417Z,16.80
2022-08-12T03:44:10.724Z,16.80
2022-08-12T03:47:00.605Z,16.80
2022-08-12T03:49:46.134Z,16.80
2022-08-12T03:52:32.035Z,16.70
2022-08-12T03:55:17.367Z,16.70
2022-08-12T03:58:03.200Z,16.70
2022-08-12T04:00:36.331Z,16.60
2022-08-12T04:03:24.841Z,16.60
2022-08-12T04:05:54.490Z,16.50
2022-08-12T04:08:27.523Z,16.40
2022-08-12T04:11:13.521Z,16.30
2022-08-12T04:13:41.902Z,16.30
2022-08-12T04:16:13.685Z,16.40
2022-08-12T04:18:42.371Z,16.30
2022-08-12T04:21:10.934Z,16.30
2022-08-12T04:23:47.723Z,16.40
2022-08-12T04:26:16.558Z,16.40
2022-08-12T04:28:44.819Z,16.40
2022-08-12T04:31:15.255Z,16.40
2022-08-12T04:33:44.299Z,16.40
2022-08-12T04:36:12.333Z,16.50
2022-08-12T04:38:40.350Z,16.50
2022-08-12T04:41:11.124Z,16.50
2022-08-12T04:43:54.554Z,16.70
2022-08-12T04:46:30.856Z,17.00
2022-08-12T04:49:03.710Z,17.80
2022-08-12T04:51:32.460Z,18.40
2022-08-12T04:54:01.245Z,18.90
2022-08-12T04:56:29.815Z,19.40
2022-08-12T04:59:04.407Z,19.80
2022-08-12T05:01:33.810Z,20.10
2022-08-12T05:04:02.909Z,20.40
2022-08-12T05:06:31.023Z,20.70
2022-08-12T05:09:00.606Z,21.00
2022-08-12T05:11:29.257Z,21.20
2022-08-12T05:14:00.584Z,21.60
2022-08-12T05:16:34.265Z,21.90
2022-08-12T05:19:06.104Z,22.00
2022-08-12T05:21:41.606Z,22.20
2022-08-12T05:24:09.986Z,22.50
2022-08-12T05:26:37.999Z,22.70
2022-08-12T05:30:05.334Z,23.00
2022-08-12T05:31:56.833Z,23.20
2022-08-12T05:34:29.731Z,23.40
2022-08-12T05:36:57.746Z,23.80
2022-08-12T05:39:25.797Z,23.80
2022-08-12T05:41:54.018Z,23.50
2022-08-12T05:44:22.042Z,22.80
2022-08-12T05:46:50.092Z,22.30
2022-08-12T05:49:18.212Z,21.90
2022-08-12T05:51:47.906Z,21.70
2022-08-12T05:54:16.424Z,21.50
2022-08-12T05:56:45.608Z,21.40
2022-08-12T05:59:14.128Z,21.20
2022-08-12T06:02:12.346Z,21.10
2022-08-12T06:04:33.275Z,21.30
2022-08-12T06:07:37.284Z,21.40
2022-08-12T06:09:50.903Z,21.30
2022-08-12T06:12:23.431Z,21.20
2022-08-12T06:14:51.430Z,21.70
2022-08-12T06:17:19.462Z,22.30
2022-08-12T06:20:26.971Z,22.40
2022-08-12T06:22:39.682Z,22.40
2022-08-12T06:25:09.176Z,22.90
2022-08-12T06:28:07.854Z,23.60
2022-08-12T06:30:39.567Z,24.20
2022-08-12T06:33:24.975Z,24.90
2022-08-12T06:35:57.630Z,25.20
2022-08-12T06:38:30.606Z,25.60
2022-08-12T06:41:18.746Z,26.10
2022-08-12T06:44:06.056Z,26.30
2022-08-12T06:46:38.810Z,26.70
2022-08-12T06:49:07.107Z,26.90
2022-08-12T06:51:35.254Z,27.30
2022-08-12T06:54:04.814Z,27.40
2022-08-12T06:58:05.665Z,27.80
2022-08-12T06:59:21.703Z,28.10
2022-08-12T07:01:51.008Z,28.30
2022-08-12T07:07:09.113Z,28.50
2022-08-12T07:10:03.905Z,28.80
2022-08-12T07:12:28.039Z,29.00
2022-08-12T07:14:57.723Z,29.10
2022-08-12T07:17:26.004Z,29.30
2022-08-12T07:19:55.483Z,29.40
2022-08-12T07:22:26.204Z,29.60
2022-08-12T07:25:09.453Z,29.70
2022-08-12T07:27:40.724Z,29.80
2022-08-12T07:30:10.868Z,29.80
2022-08-12T07:32:39.062Z,29.90
2022-08-12T07:35:08.042Z,30.00
2022-08-12T07:37:41.935Z,30.10
2022-08-12T07:40:12.854Z,30.30
2022-08-12T07:42:43.647Z,30.40
2022-08-12T07:45:12.356Z,30.30
2022-08-12T07:47:43.236Z,30.20
2022-08-12T07:50:13.121Z,30.30
2022-08-12T07:52:45.282Z,30.50
2022-08-12T07:55:16.754Z,30.30
2022-08-12T07:57:57.929Z,30.40
2022-08-12T08:00:26.747Z,30.30
2022-08-12T08:02:55.363Z,30.10
2022-08-12T08:05:27.062Z,30.00
2022-08-12T08:08:01.787Z,29.80
2022-08-12T08:10:33.755Z,29.40
2022-08-12T08:13:05.197Z,29.10
2022-08-12T08:16:01.092Z,28.70
2022-08-12T08:18:25.970Z,28.60
2022-08-12T08:20:56.527Z,28.60
2022-08-12T08:23:46.913Z,28.30
2022-08-12T08:26:27.149Z,28.20
2022-08-12T08:28:55.458Z,28.10
2022-08-12T08:31:23.448Z,28.10
2022-08-12T08:34:09.612Z,28.20
2022-08-12T08:36:40.407Z,28.20
2022-08-12T08:39:11.406Z,28.00
2022-08-12T08:42:18.913Z,28.00
2022-08-12T08:44:46.536Z,28.00
2022-08-12T08:47:17.776Z,27.90
2022-08-12T08:49:45.822Z,27.90
2022-08-12T08:52:13.815Z,27.80
2022-08-12T08:55:01.816Z,27.90
2022-08-12T08:57:43.796Z,28.00
2022-08-12T09:00:15.248Z,28.10
2022-08-12T09:02:49.503Z,28.20
2022-08-12T09:05:27.173Z,28.30
2022-08-12T09:08:11.938Z,28.20
2022-08-12T09:10:45.177Z,28.20
2022-08-12T09:16:20.393Z,28.10
2022-08-12T09:18:52.654Z,28.10
2022-08-12T09:21:23.190Z,28.00
2022-08-12T09:23:59.655Z,27.80
2022-08-12T09:26:38.059Z,27.80
2022-08-12T09:29:12.182Z,27.90
2022-08-12T09:32:03.968Z,27.90
2022-08-12T09:34:33.891Z,27.90
2022-08-12T09:37:18.716Z,27.80
2022-08-12T09:40:05.442Z,27.80
2022-08-12T09:43:15.276Z,27.80
2022-08-12T09:46:06.781Z,27.70
2022-08-12T09:48:36.000Z,27.70
2022-08-12T09:51:16.598Z,27.60
2022-08-12T09:54:08.413Z,27.60
2022-08-12T09:56:58.851Z,27.60
2022-08-12T10:00:16.187Z,27.60
2022-08-12T10:02:42.067Z,27.70
2022-08-12T10:05:14.040Z,27.70
2022-08-12T10:07:46.101Z,27.90
2022-08-12T10:10:25.221Z,27.90
2022-08-12T10:13:34.264Z,27.90
2022-08-12T10:16:07.638Z,27.90
2022-08-12T10:18:51.736Z,27.70
2022-08-12T10:21:23.254Z,27.60
2022-08-12T10:23:56.658Z,27.60
2022-08-12T10:26:48.604Z,27.50
2022-08-12T10:30:37.083Z,27.50
2022-08-12T10:32:45.463Z,27.50
2022-08-12T10:35:15.835Z,27.60
2022-08-12T10:38:33.599Z,27.80
2022-08-12T10:40:37.846Z,27.90
2022-08-12T10:43:23.297Z,27.90
2022-08-12T10:45:58.486Z,28.00
2022-08-12T10:48:34.169Z,28.00
2022-08-12T10:52:03.117Z,28.00
2022-08-12T10:53:54.299Z,27.90
2022-08-12T10:56:34.527Z,27.90
2022-08-12T10:59:03.868Z,27.90
2022-08-12T11:04:19.904Z,27.90
2022-08-12T11:04:41.434Z,27.90
2022-08-12T11:08:36.997Z,27.90
2022-08-12T11:10:01.248Z,27.70
2022-08-12T11:12:56.675Z,27.70
2022-08-12T11:15:32.838Z,27.70
2022-08-12T11:18:17.800Z,27.70
2022-08-12T11:20:47.558Z,27.80
2022-08-12T11:23:26.061Z,27.70
2022-08-12T11:26:07.193Z,27.70
2022-08-12T11:28:37.080Z,27.80
2022-08-12T11:31:13.141Z,27.70
2022-08-12T11:34:06.719Z,27.70
2022-08-12T11:36:32.114Z,27.60
2022-08-12T11:39:04.509Z,27.80
2022-08-12T11:41:34.625Z,27.90
2022-08-12T11:44:35.321Z,27.90
2022-08-12T11:46:53.017Z,27.80
2022-08-12T11:49:30.818Z,27.80
2022-08-12T11:52:00.020Z,27.70
2022-08-12T11:54:30.304Z,27.80
2022-08-12T11:56:59.859Z,27.90
2022-08-12T12:02:20.468Z,27.70
2022-08-12T12:04:52.267Z,27.80
2022-08-12T12:07:22.548Z,27.90
2022-08-12T12:09:53.850Z,27.90
2022-08-12T12:12:24.737Z,27.90
2022-08-12T12:14:54.441Z,27.80
2022-08-12T12:17:23.247Z,27.90
2022-08-12T12:19:51.344Z,27.90
2022-08-12T12:22:23.440Z,27.90
2022-08-12T12:24:56.654Z,28.00
2022-08-12T12:28:00.656Z,28.00
2022-08-12T12:30:19.682Z,28.00
2022-08-12T12:32:57.875Z,28.00
2022-08-12T12:36:05.779Z,28.00
2022-08-12T12:38:15.934Z,28.10
2022-08-12T12:40:50.453Z,28.10
2022-08-12T12:43:42.522Z,28.10
2022-08-12T12:46:08.811Z,28.10
2022-08-12T12:48:38.827Z,28.20
2022-08-12T12:51:49.370Z,28.20
2022-08-12T12:54:10.000Z,28.20
2022-08-12T12:56:42.243Z,28.20
2022-08-12T12:59:55.256Z,28.20
2022-08-12T13:02:07.783Z,28.10
2022-08-12T13:04:37.413Z,28.10
2022-08-12T13:07:06.620Z,28.10
2022-08-12T13:09:36.504Z,28.10
2022-08-12T13:12:10.431Z,28.10
2022-08-12T13:14:40.120Z,28.00
2022-08-12T13:17:09.707Z,28.00
2022-08-12T13:19:45.176Z,28.00
2022-08-12T13:22:20.093Z,28.00
2022-08-12T13:24:54.842Z,28.00
2022-08-12T13:27:35.107Z,28.00
2022-08-12T13:30:11.326Z,28.00
2022-08-12T13:32:41.855Z,28.00
2022-08-12T13:35:20.217Z,28.10
2022-08-12T13:38:02.786Z,28.20
2022-08-12T13:40:33.787Z,28.20
2022-08-12T13:43:06.946Z,28.10
2022-08-12T13:45:36.785Z,28.00
2022-08-12T13:48:06.429Z,28.10
2022-08-12T13:50:37.514Z,28.00
2022-08-12T13:53:24.691Z,28.00
2022-08-12T13:56:01.449Z,28.00
2022-08-12T13:58:34.931Z,27.90
2022-08-12T14:01:06.088Z,27.90
2022-08-12T14:03:51.150Z,27.90
2022-08-12T14:06:21.073Z,27.90
2022-08-12T14:08:50.573Z,27.90
2022-08-12T14:11:25.428Z,27.90
2022-08-12T14:14:04.259Z,27.90
2022-08-12T14:16:46.849Z,27.90
2022-08-12T14:19:18.478Z,27.90
2022-08-12T14:22:00.778Z,28.00
2022-08-12T14:24:35.620Z,28.10
2022-08-12T14:27:08.753Z,28.10
2022-08-12T14:30:04.894Z,28.20
2022-08-12T14:32:35.485Z,28.10
2022-08-12T14:35:08.972Z,28.00
2022-08-12T14:37:58.107Z,28.10
2022-08-12T14:40:29.315Z,28.00
2022-08-12T14:42:58.652Z,27.90
2022-08-12T14:45:45.464Z,28.00
2022-08-12T14:48:18.628Z,27.90
2022-08-12T14:51:03.011Z,28.00
2022-08-12T14:59:56.710Z,28.10
2022-08-12T15:02:21.597Z,28.00
2022-08-12T15:04:58.961Z,27.90
2022-08-12T15:07:34.109Z,28.00
2022-08-12T15:10:31.993Z,27.90
2022-08-12T15:13:06.924Z,27.80
2022-08-12T15:15:44.119Z,27.80
2022-08-12T15:18:21.774Z,27.80
2022-08-12T15:20:52.222Z,27.80
2022-08-12T15:23:21.472Z,27.80
2022-08-12T15:26:02.911Z,27.80
2022-08-12T15:28:34.443Z,27.80
2022-08-12T15:31:03.302Z,27.90
2022-08-12T15:33:51.159Z,27.90
2022-08-12T15:36:40.759Z,27.70
2022-08-12T15:39:17.687Z,27.60
2022-08-12T15:41:49.508Z,27.60
2022-08-12T15:44:41.848Z,27.60
2022-08-12T15:47:07.276Z,27.60
2022-08-12T15:49:54.332Z,27.50
2022-08-12T15:52:27.939Z,27.50
2022-08-12T15:54:58.822Z,27.60
2022-08-12T15:57:27.666Z,27.60
2022-08-12T16:00:07.467Z,27.50
2022-08-12T16:02:50.165Z,27.60
2022-08-12T16:06:11.749Z,27.40
2022-08-12T16:08:16.364Z,27.50
2022-08-12T16:10:46.925Z,27.40
2022-08-12T16:13:32.422Z,27.40
2022-08-12T16:16:04.038Z,27.40
2022-08-12T16:18:40.431Z,27.40
2022-08-12T16:21:52.909Z,27.30
2022-08-12T16:24:08.110Z,27.30
2022-08-12T16:26:38.255Z,27.20
2022-08-12T16:29:15.115Z,27.10
2022-08-12T16:31:44.459Z,27.10
2022-08-12T16:34:25.859Z,27.00
2022-08-12T16:37:08.762Z,27.00
2022-08-12T16:39:59.710Z,27.10
2022-08-12T16:42:28.458Z,27.10
2022-08-12T16:44:57.523Z,27.00
2022-08-12T16:47:27.111Z,27.00
2022-08-12T16:49:57.866Z,27.00
2022-08-12T16:52:27.574Z,26.90
2022-08-12T16:54:56.431Z,26.90
2022-08-12T16:57:34.541Z,26.80
2022-08-12T17:00:04.543Z,26.70
2022-08-12T17:02:36.856Z,26.70
2022-08-12T17:05:14.943Z,26.80
2022-08-12T17:07:52.118Z,26.70
2022-08-12T17:10:35.493Z,26.60
2022-08-12T17:13:10.161Z,26.60
2022-08-12T17:15:57.437Z,26.60
2022-08-12T17:18:43.627Z,26.60
2022-08-12T17:21:19.701Z,26.50
2022-08-12T17:23:54.277Z,26.50
2022-08-12T17:26:28.129Z,26.40
2022-08-12T17:28:57.694Z,26.50
2022-08-12T17:32:01.213Z,26.40
2022-08-12T17:34:33.970Z,26.30
2022-08-12T17:37:05.145Z,26.20
2022-08-12T17:39:36.829Z,26.10
2022-08-12T17:42:34.272Z,26.10
2022-08-12T17:45:17.235Z,26.10
2022-08-12T17:48:01.371Z,26.00
2022-08-12T17:50:34.307Z,26.10
2022-08-12T17:53:03.585Z,26.00
2022-08-12T17:55:44.305Z,26.00
2022-08-12T17:58:17.513Z,25.90
2022-08-12T18:00:48.022Z,25.80
2022-08-12T18:03:57.543Z,25.70
2022-08-12T18:06:14.268Z,25.70
2022-08-12T18:08:53.406Z,25.70
2022-08-12T18:12:04.861Z,25.70
2022-08-12T18:14:30.146Z,25.60
2022-08-12T18:17:00.346Z,25.50
2022-08-12T18:20:04.286Z,25.50
2022-08-12T18:22:22.077Z,25.40
2022-08-12T18:25:04.052Z,25.30
2022-08-12T18:27:46.770Z,25.30
2022-08-12T18:30:28.810Z,25.20
2022-08-12T18:33:03.444Z,25.20
2022-08-12T18:35:46.311Z,25.20
2022-08-12T18:38:18.006Z,25.10
2022-08-12T18:41:07.264Z,25.00
2022-08-12T18:43:58.508Z,25.00
2022-08-12T18:46:34.879Z,24.80
2022-08-12T18:49:18.762Z,24.70
2022-08-12T18:51:55.688Z,24.60
2022-08-12T18:54:35.952Z,24.60
2022-08-12T18:57:16.763Z,24.40
2022-08-12T19:00:00.153Z,24.40
2022-08-12T19:02:32.924Z,24.30
2022-08-12T19:05:09.331Z,24.20
2022-08-12T19:07:49.537Z,24.10
2022-08-12T19:10:26.928Z,24.00
2022-08-12T19:13:33.145Z,23.90
2022-08-12T19:16:10.734Z,23.80
2022-08-12T19:18:41.017Z,23.70
2022-08-12T19:21:16.353Z,23.60
2022-08-12T19:24:05.477Z,23.50
2022-08-12T19:26:34.438Z,23.40
2022-08-12T19:29:05.114Z,23.40
2022-08-12T19:31:58.737Z,23.30
2022-08-12T19:37:27.580Z,23.20
2022-08-12T19:40:20.473Z,23.10
2022-08-12T19:42:57.668Z,23.00
2022-08-12T19:45:42.448Z,22.90
2022-08-12T19:48:17.255Z,22.90
2022-08-12T19:50:50.202Z,22.80
2022-08-12T19:53:22.776Z,22.80
2022-08-12T19:55:53.834Z,22.70
2022-08-12T19:58:23.702Z,22.70
2022-08-12T20:00:54.332Z,22.60
2022-08-12T20:03:38.147Z,22.60
2022-08-12T20:06:13.660Z,22.50
2022-08-12T20:08:48.837Z,22.40
2022-08-12T20:12:09.644Z,22.30
2022-08-12T20:14:12.450Z,22.30
2022-08-12T20:16:52.861Z,22.20
2022-08-12T20:19:52.363Z,22.20
2022-08-12T20:22:23.346Z,22.20
2022-08-12T20:24:54.955Z,22.10
2022-08-12T20:27:29.390Z,22.10
2022-08-12T20:30:13.683Z,22.00
2022-08-12T20:32:51.309Z,21.90
2022-08-12T20:35:24.617Z,21.90
2022-08-12T20:38:04.906Z,21.80
2022-08-12T20:40:42.347Z,21.80
2022-08-12T20:43:19.062Z,21.70
2022-08-12T20:45:57.940Z,21.60
2022-08-12T20:48:29.551Z,21.60
2022-08-12T20:51:04.581Z,21.50
2022-08-12T20:53:53.956Z,21.40
2022-08-12T20:56:30.692Z,21.40
2022-08-12T20:59:01.781Z,21.40
2022-08-12T21:01:46.466Z,21.40
2022-08-12T21:04:35.634Z,21.40
2022-08-12T21:07:09.383Z,21.30
2022-08-12T21:09:42.114Z,21.30
2022-08-12T21:12:37.521Z,21.40
2022-08-12T21:15:17.589Z,21.40
2022-08-12T21:18:09.122Z,21.40
2022-08-12T21:20:44.525Z,21.40
2022-08-12T21:23:15.567Z,21.40
2022-08-12T21:25:48.209Z,21.40
2022-08-12T21:28:30.854Z,21.40
2022-08-12T21:32:34.738Z,21.40
2022-08-12T21:34:07.585Z,21.30
2022-08-12T21:36:39.511Z,21.20
2022-08-12T21:39:18.831Z,21.20
2022-08-12T21:41:50.161Z,21.10
2022-08-12T21:44:24.576Z,21.10
2022-08-12T21:47:19.696Z,21.10
2022-08-12T21:50:03.808Z,21.10
2022-08-12T21:52:36.898Z,20.90
2022-08-12T21:55:18.179Z,20.90
2022-08-12T21:57:53.136Z,20.90
2022-08-12T22:00:23.944Z,20.90
2022-08-12T22:03:25.019Z,20.90
2022-08-12T22:06:31.847Z,20.80
2022-08-12T22:09:17.105Z,20.80
2022-08-12T22:11:56.387Z,20.90
2022-08-12T22:14:28.329Z,20.80
2022-08-12T22:16:57.724Z,20.90
2022-08-12T22:19:26.846Z,20.80
2022-08-12T22:21:58.302Z,20.80
2022-08-12T22:24:29.865Z,20.80
2022-08-12T22:27:18.277Z,20.70
2022-08-12T22:30:07.282Z,20.80
2022-08-12T22:32:36.538Z,20.80
2022-08-12T22:35:29.353Z,20.70
2022-08-12T22:38:08.437Z,20.70
2022-08-12T22:40:39.266Z,20.70
2022-08-12T22:43:31.007Z,20.70
2022-08-12T22:46:16.898Z,20.70
2022-08-12T22:48:50.587Z,20.70
2022-08-12T22:51:24.178Z,20.60
2022-08-12T22:53:54.454Z,20.70
2022-08-12T22:56:30.931Z,20.60
2022-08-12T22:59:02.593Z,20.60
2022-08-12T23:02:01.424Z,20.60
2022-08-12T23:04:27.722Z,20.60
2022-08-12T23:06:58.397Z,20.60
2022-08-12T23:09:48.032Z,20.60
2022-08-12T23:12:37.394Z,20.50
2022-08-12T23:15:10.497Z,20.50
2022-08-12T23:17:41.087Z,20.50
2022-08-12T23:20:11.477Z,20.40
2022-08-12T23:22:40.070Z,20.40
2022-08-12T23:25:32.779Z,20.40
2022-08-12T23:28:33.785Z,20.30
2022-08-12T23:31:04.642Z,20.30
2022-08-12T23:34:02.458Z,20.20
2022-08-12T23:36:39.419Z,20.10
2022-08-12T23:40:15.376Z,20.00
2022-08-12T23:42:18.054Z,20.00
2022-08-12T23:45:20.185Z,19.90
2022-08-12T23:48:00.145Z,19.90
2022-08-12T23:50:34.063Z,19.80
2022-08-12T23:53:05.535Z,19.70
2022-08-12T23:55:35.863Z,19.70
2022-08-12T23:58:18.051Z,19.60
